sensor_id;sensor_type;location;lat;lon;timestamp;P1;durP1;ratioP1;P2;durP2;ratioP2
36745;SDS011;22715;52.182;21.206;2022-09-17T00:01:41;5.18;;;4.30;;
36745;SDS011;22715;52.182;21.206;2022-09-17T00:04:17;3.85;;;2.97;;
36745;SDS011;22715;52.182;21.206;2022-09-17T00:06:42;4.00;;;3.17;;
36745;SDS011;22715;52.182;21.206;2022-09-17T00:09:08;5.50;;;3.55;;
36745;SDS011;22715;52.182;21.206;2022-09-17T00:11:34;5.57;;;4.07;;
36745;SDS011;22715;52.182;21.206;2022-09-17T00:14:00;6.32;;;3.95;;
36745;SDS011;22715;52.182;21.206;2022-09-17T00:18:52;4.68;;;2.80;;
36745;SDS011;22715;52.182;21.206;2022-09-17T00:21:19;8.90;;;3.85;;
36745;SDS011;22715;52.182;21.206;2022-09-17T00:23:44;3.42;;;3.00;;
36745;SDS011;22715;52.182;21.206;2022-09-17T00:26:10;6.30;;;3.50;;
36745;SDS011;22715;52.182;21.206;2022-09-17T00:28:35;3.65;;;3.13;;
36745;SDS011;22715;52.182;21.206;2022-09-17T00:31:05;4.28;;;3.10;;
36745;SDS011;22715;52.182;21.206;2022-09-17T00:33:30;3.28;;;2.88;;
36745;SDS011;22715;52.182;21.206;2022-09-17T00:35:59;4.82;;;3.35;;
36745;SDS011;22715;52.182;21.206;2022-09-17T00:38:25;5.13;;;2.90;;
36745;SDS011;22715;52.182;21.206;2022-09-17T00:40:50;4.40;;;3.72;;
36745;SDS011;22715;52.182;21.206;2022-09-17T00:46:00;3.47;;;2.88;;
36745;SDS011;22715;52.182;21.206;2022-09-17T00:48:26;4.93;;;3.10;;
36745;SDS011;22715;52.182;21.206;2022-09-17T00:50:51;8.10;;;3.72;;
36745;SDS011;22715;52.182;21.206;2022-09-17T00:53:17;3.75;;;2.88;;
36745;SDS011;22715;52.182;21.206;2022-09-17T00:56:18;4.35;;;3.10;;
36745;SDS011;22715;52.182;21.206;2022-09-17T00:58:35;3.20;;;2.28;;
36745;SDS011;22715;52.182;21.206;2022-09-17T01:01:00;4.63;;;2.95;;
36745;SDS011;22715;52.182;21.206;2022-09-17T01:03:26;4.65;;;2.60;;
36745;SDS011;22715;52.182;21.206;2022-09-17T01:08:24;4.63;;;3.00;;
36745;SDS011;22715;52.182;21.206;2022-09-17T01:16:02;4.78;;;2.33;;
36745;SDS011;22715;52.182;21.206;2022-09-17T01:18:55;4.28;;;2.30;;
36745;SDS011;22715;52.182;21.206;2022-09-17T01:21:30;4.57;;;2.63;;
36745;SDS011;22715;52.182;21.206;2022-09-17T01:24:00;4.18;;;2.58;;
36745;SDS011;22715;52.182;21.206;2022-09-17T01:31:50;7.20;;;2.90;;
36745;SDS011;22715;52.182;21.206;2022-09-17T01:34:32;5.97;;;2.42;;
36745;SDS011;22715;52.182;21.206;2022-09-17T01:49:55;2.42;;;2.00;;
36745;SDS011;22715;52.182;21.206;2022-09-17T01:52:23;3.83;;;3.13;;
36745;SDS011;22715;52.182;21.206;2022-09-17T01:54:50;4.18;;;2.47;;
36745;SDS011;22715;52.182;21.206;2022-09-17T01:57:20;4.80;;;2.78;;
36745;SDS011;22715;52.182;21.206;2022-09-17T01:59:54;5.30;;;2.63;;
36745;SDS011;22715;52.182;21.206;2022-09-17T02:02:22;7.25;;;2.30;;
36745;SDS011;22715;52.182;21.206;2022-09-17T02:04:55;4.03;;;2.60;;
36745;SDS011;22715;52.182;21.206;2022-09-17T02:07:21;3.65;;;3.35;;
36745;SDS011;22715;52.182;21.206;2022-09-17T02:10:11;3.63;;;2.33;;
36745;SDS011;22715;52.182;21.206;2022-09-17T02:12:43;5.00;;;3.33;;
36745;SDS011;22715;52.182;21.206;2022-09-17T02:15:11;3.88;;;2.45;;
36745;SDS011;22715;52.182;21.206;2022-09-17T02:20:04;3.80;;;2.30;;
36745;SDS011;22715;52.182;21.206;2022-09-17T02:22:33;2.90;;;2.20;;
36745;SDS011;22715;52.182;21.206;2022-09-17T02:25:09;3.35;;;2.63;;
36745;SDS011;22715;52.182;21.206;2022-09-17T02:27:52;3.47;;;2.90;;
36745;SDS011;22715;52.182;21.206;2022-09-17T02:30:21;4.03;;;2.22;;
36745;SDS011;22715;52.182;21.206;2022-09-17T02:32:46;6.50;;;2.90;;
36745;SDS011;22715;52.182;21.206;2022-09-17T02:35:12;2.42;;;2.20;;
36745;SDS011;22715;52.182;21.206;2022-09-17T02:37:38;4.47;;;2.90;;
36745;SDS011;22715;52.182;21.206;2022-09-17T02:40:04;2.92;;;2.65;;
36745;SDS011;22715;52.182;21.206;2022-09-17T02:45:01;3.80;;;2.28;;
36745;SDS011;22715;52.182;21.206;2022-09-17T02:50:00;2.53;;;1.95;;
36745;SDS011;22715;52.182;21.206;2022-09-17T02:57:41;4.60;;;3.53;;
36745;SDS011;22715;52.182;21.206;2022-09-17T03:02:35;4.15;;;3.65;;
36745;SDS011;22715;52.182;21.206;2022-09-17T03:05:02;6.30;;;2.67;;
36745;SDS011;22715;52.182;21.206;2022-09-17T03:07:28;5.53;;;2.80;;
36745;SDS011;22715;52.182;21.206;2022-09-17T03:09:54;4.25;;;2.90;;
36745;SDS011;22715;52.182;21.206;2022-09-17T03:12:19;2.72;;;2.53;;
36745;SDS011;22715;52.182;21.206;2022-09-17T03:14:44;4.43;;;2.65;;
36745;SDS011;22715;52.182;21.206;2022-09-17T03:17:09;3.60;;;3.22;;
36745;SDS011;22715;52.182;21.206;2022-09-17T03:19:35;5.25;;;3.00;;
36745;SDS011;22715;52.182;21.206;2022-09-17T03:22:00;5.88;;;3.03;;
36745;SDS011;22715;52.182;21.206;2022-09-17T03:24:25;4.22;;;2.88;;
36745;SDS011;22715;52.182;21.206;2022-09-17T03:26:51;4.00;;;2.58;;
36745;SDS011;22715;52.182;21.206;2022-09-17T03:29:16;2.60;;;2.00;;
36745;SDS011;22715;52.182;21.206;2022-09-17T03:31:42;3.03;;;2.72;;
36745;SDS011;22715;52.182;21.206;2022-09-17T03:34:07;5.75;;;2.80;;
36745;SDS011;22715;52.182;21.206;2022-09-17T03:36:33;5.50;;;3.15;;
36745;SDS011;22715;52.182;21.206;2022-09-17T03:38:58;3.90;;;2.92;;
36745;SDS011;22715;52.182;21.206;2022-09-17T03:41:24;3.05;;;2.38;;
36745;SDS011;22715;52.182;21.206;2022-09-17T03:43:50;3.35;;;2.75;;
36745;SDS011;22715;52.182;21.206;2022-09-17T03:46:16;4.60;;;3.00;;
36745;SDS011;22715;52.182;21.206;2022-09-17T03:48:41;3.85;;;2.90;;
36745;SDS011;22715;52.182;21.206;2022-09-17T03:51:06;3.47;;;2.47;;
36745;SDS011;22715;52.182;21.206;2022-09-17T03:53:32;3.58;;;2.55;;
36745;SDS011;22715;52.182;21.206;2022-09-17T03:55:58;10.75;;;4.80;;
36745;SDS011;22715;52.182;21.206;2022-09-17T03:58:24;2.88;;;2.67;;
36745;SDS011;22715;52.182;21.206;2022-09-17T04:00:49;4.22;;;2.80;;
36745;SDS011;22715;52.182;21.206;2022-09-17T04:03:17;5.50;;;3.83;;
36745;SDS011;22715;52.182;21.206;2022-09-17T04:05:42;3.92;;;2.45;;
36745;SDS011;22715;52.182;21.206;2022-09-17T04:08:08;3.78;;;3.33;;
36745;SDS011;22715;52.182;21.206;2022-09-17T04:10:33;5.65;;;2.75;;
36745;SDS011;22715;52.182;21.206;2022-09-17T04:12:58;4.18;;;3.78;;
36745;SDS011;22715;52.182;21.206;2022-09-17T04:15:23;5.13;;;2.88;;
36745;SDS011;22715;52.182;21.206;2022-09-17T04:17:49;3.55;;;2.80;;
36745;SDS011;22715;52.182;21.206;2022-09-17T04:20:14;3.35;;;2.55;;
36745;SDS011;22715;52.182;21.206;2022-09-17T04:22:40;4.15;;;3.08;;
36745;SDS011;22715;52.182;21.206;2022-09-17T04:25:05;3.08;;;2.67;;
36745;SDS011;22715;52.182;21.206;2022-09-17T04:27:31;4.45;;;3.30;;
36745;SDS011;22715;52.182;21.206;2022-09-17T04:29:56;6.53;;;3.35;;
36745;SDS011;22715;52.182;21.206;2022-09-17T04:32:21;5.93;;;3.20;;
36745;SDS011;22715;52.182;21.206;2022-09-17T04:34:47;5.63;;;2.97;;
36745;SDS011;22715;52.182;21.206;2022-09-17T04:37:12;7.85;;;3.08;;
36745;SDS011;22715;52.182;21.206;2022-09-17T04:39:37;2.55;;;2.20;;
36745;SDS011;22715;52.182;21.206;2022-09-17T04:42:03;4.22;;;3.05;;
36745;SDS011;22715;52.182;21.206;2022-09-17T04:44:28;5.05;;;2.63;;
36745;SDS011;22715;52.182;21.206;2022-09-17T04:46:54;6.07;;;3.30;;
36745;SDS011;22715;52.182;21.206;2022-09-17T04:49:19;6.20;;;3.00;;
36745;SDS011;22715;52.182;21.206;2022-09-17T04:51:44;3.08;;;2.55;;
36745;SDS011;22715;52.182;21.206;2022-09-17T04:54:10;3.72;;;2.97;;
36745;SDS011;22715;52.182;21.206;2022-09-17T04:56:35;7.90;;;3.58;;
36745;SDS011;22715;52.182;21.206;2022-09-17T04:59:00;3.83;;;2.92;;
36745;SDS011;22715;52.182;21.206;2022-09-17T05:01:25;4.20;;;2.67;;
36745;SDS011;22715;52.182;21.206;2022-09-17T05:03:51;3.65;;;2.38;;
36745;SDS011;22715;52.182;21.206;2022-09-17T05:06:16;3.88;;;2.53;;
36745;SDS011;22715;52.182;21.206;2022-09-17T05:08:41;4.03;;;3.22;;
36745;SDS011;22715;52.182;21.206;2022-09-17T05:11:09;6.20;;;2.30;;
36745;SDS011;22715;52.182;21.206;2022-09-17T05:13:35;4.95;;;3.33;;
36745;SDS011;22715;52.182;21.206;2022-09-17T05:16:00;3.25;;;2.25;;
36745;SDS011;22715;52.182;21.206;2022-09-17T05:18:25;6.68;;;2.80;;
36745;SDS011;22715;52.182;21.206;2022-09-17T05:20:51;4.30;;;2.72;;
36745;SDS011;22715;52.182;21.206;2022-09-17T05:23:16;3.15;;;2.42;;
36745;SDS011;22715;52.182;21.206;2022-09-17T05:25:41;4.30;;;2.55;;
36745;SDS011;22715;52.182;21.206;2022-09-17T05:28:10;3.95;;;2.72;;
36745;SDS011;22715;52.182;21.206;2022-09-17T05:30:35;5.75;;;3.67;;
36745;SDS011;22715;52.182;21.206;2022-09-17T05:33:01;3.92;;;2.60;;
36745;SDS011;22715;52.182;21.206;2022-09-17T05:35:27;3.30;;;2.92;;
36745;SDS011;22715;52.182;21.206;2022-09-17T05:37:57;4.72;;;2.30;;
36745;SDS011;22715;52.182;21.206;2022-09-17T05:40:22;4.18;;;2.83;;
36745;SDS011;22715;52.182;21.206;2022-09-17T05:42:47;3.47;;;2.72;;
36745;SDS011;22715;52.182;21.206;2022-09-17T05:45:12;4.25;;;2.85;;
36745;SDS011;22715;52.182;21.206;2022-09-17T05:47:38;3.30;;;2.42;;
36745;SDS011;22715;52.182;21.206;2022-09-17T05:50:03;4.18;;;2.95;;
36745;SDS011;22715;52.182;21.206;2022-09-17T05:52:29;3.25;;;2.90;;
36745;SDS011;22715;52.182;21.206;2022-09-17T05:54:54;3.17;;;2.88;;
36745;SDS011;22715;52.182;21.206;2022-09-17T05:57:20;4.63;;;2.75;;
36745;SDS011;22715;52.182;21.206;2022-09-17T05:59:45;3.15;;;1.90;;
36745;SDS011;22715;52.182;21.206;2022-09-17T06:02:12;2.30;;;2.00;;
36745;SDS011;22715;52.182;21.206;2022-09-17T06:04:37;4.85;;;2.30;;
36745;SDS011;22715;52.182;21.206;2022-09-17T06:07:03;3.53;;;2.25;;
36745;SDS011;22715;52.182;21.206;2022-09-17T06:09:31;2.95;;;2.20;;
36745;SDS011;22715;52.182;21.206;2022-09-17T06:11:58;3.10;;;2.05;;
36745;SDS011;22715;52.182;21.206;2022-09-17T06:14:23;4.00;;;2.75;;
36745;SDS011;22715;52.182;21.206;2022-09-17T06:16:49;3.67;;;1.90;;
36745;SDS011;22715;52.182;21.206;2022-09-17T06:19:14;2.50;;;1.58;;
36745;SDS011;22715;52.182;21.206;2022-09-17T06:21:39;1.63;;;1.40;;
36745;SDS011;22715;52.182;21.206;2022-09-17T06:24:05;8.48;;;2.67;;
36745;SDS011;22715;52.182;21.206;2022-09-17T06:26:30;5.38;;;1.70;;
36745;SDS011;22715;52.182;21.206;2022-09-17T06:28:57;1.50;;;1.40;;
36745;SDS011;22715;52.182;21.206;2022-09-17T06:31:22;5.75;;;1.80;;
36745;SDS011;22715;52.182;21.206;2022-09-17T06:33:47;2.20;;;1.90;;
36745;SDS011;22715;52.182;21.206;2022-09-17T06:36:13;4.03;;;1.35;;
36745;SDS011;22715;52.182;21.206;2022-09-17T06:38:38;1.63;;;1.25;;
36745;SDS011;22715;52.182;21.206;2022-09-17T06:41:04;3.15;;;1.38;;
36745;SDS011;22715;52.182;21.206;2022-09-17T06:43:29;2.15;;;1.75;;
36745;SDS011;22715;52.182;21.206;2022-09-17T06:45:56;2.55;;;1.17;;
36745;SDS011;22715;52.182;21.206;2022-09-17T06:48:21;4.88;;;1.70;;
36745;SDS011;22715;52.182;21.206;2022-09-17T06:50:47;3.47;;;1.52;;
36745;SDS011;22715;52.182;21.206;2022-09-17T06:53:12;3.65;;;1.60;;
36745;SDS011;22715;52.182;21.206;2022-09-17T06:55:38;2.58;;;1.60;;
36745;SDS011;22715;52.182;21.206;2022-09-17T06:58:03;1.40;;;1.15;;
36745;SDS011;22715;52.182;21.206;2022-09-17T07:00:36;5.18;;;1.75;;
36745;SDS011;22715;52.182;21.206;2022-09-17T07:03:01;1.33;;;1.02;;
36745;SDS011;22715;52.182;21.206;2022-09-17T07:05:30;1.60;;;1.50;;
36745;SDS011;22715;52.182;21.206;2022-09-17T07:07:59;4.72;;;1.63;;
36745;SDS011;22715;52.182;21.206;2022-09-17T07:10:25;8.93;;;2.63;;
36745;SDS011;22715;52.182;21.206;2022-09-17T07:12:53;1.63;;;1.13;;
36745;SDS011;22715;52.182;21.206;2022-09-17T07:15:19;1.95;;;1.30;;
36745;SDS011;22715;52.182;21.206;2022-09-17T07:17:44;1.45;;;1.10;;
36745;SDS011;22715;52.182;21.206;2022-09-17T07:20:10;2.70;;;1.20;;
36745;SDS011;22715;52.182;21.206;2022-09-17T07:22:36;1.70;;;1.45;;
36745;SDS011;22715;52.182;21.206;2022-09-17T07:25:01;3.85;;;1.90;;
36745;SDS011;22715;52.182;21.206;2022-09-17T07:27:27;2.05;;;1.10;;
36745;SDS011;22715;52.182;21.206;2022-09-17T07:29:52;5.25;;;1.10;;
36745;SDS011;22715;52.182;21.206;2022-09-17T07:32:18;2.15;;;1.13;;
36745;SDS011;22715;52.182;21.206;2022-09-17T07:34:43;3.35;;;1.33;;
36745;SDS011;22715;52.182;21.206;2022-09-17T07:37:08;2.83;;;1.20;;
36745;SDS011;22715;52.182;21.206;2022-09-17T07:39:34;2.88;;;1.83;;
36745;SDS011;22715;52.182;21.206;2022-09-17T07:41:59;4.13;;;1.13;;
36745;SDS011;22715;52.182;21.206;2022-09-17T07:44:28;1.60;;;0.77;;
36745;SDS011;22715;52.182;21.206;2022-09-17T07:46:53;1.80;;;1.17;;
36745;SDS011;22715;52.182;21.206;2022-09-17T07:49:18;3.30;;;1.02;;
36745;SDS011;22715;52.182;21.206;2022-09-17T07:51:44;2.33;;;1.63;;
36745;SDS011;22715;52.182;21.206;2022-09-17T07:54:09;2.22;;;1.02;;
36745;SDS011;22715;52.182;21.206;2022-09-17T07:56:34;2.35;;;1.20;;
36745;SDS011;22715;52.182;21.206;2022-09-17T07:59:02;2.80;;;1.55;;
36745;SDS011;22715;52.182;21.206;2022-09-17T08:01:28;2.70;;;2.28;;
36745;SDS011;22715;52.182;21.206;2022-09-17T08:03:54;1.77;;;1.35;;
36745;SDS011;22715;52.182;21.206;2022-09-17T08:06:21;2.92;;;0.95;;
36745;SDS011;22715;52.182;21.206;2022-09-17T08:08:47;3.85;;;1.58;;
36745;SDS011;22715;52.182;21.206;2022-09-17T08:11:15;2.47;;;1.48;;
36745;SDS011;22715;52.182;21.206;2022-09-17T08:13:41;2.45;;;1.00;;
36745;SDS011;22715;52.182;21.206;2022-09-17T08:16:07;4.32;;;1.92;;
36745;SDS011;22715;52.182;21.206;2022-09-17T08:18:33;1.60;;;1.20;;
36745;SDS011;22715;52.182;21.206;2022-09-17T08:20:59;4.57;;;1.15;;
36745;SDS011;22715;52.182;21.206;2022-09-17T08:23:25;3.10;;;1.55;;
36745;SDS011;22715;52.182;21.206;2022-09-17T08:25:52;2.05;;;1.60;;
36745;SDS011;22715;52.182;21.206;2022-09-17T08:28:21;3.05;;;1.92;;
36745;SDS011;22715;52.182;21.206;2022-09-17T08:30:49;1.27;;;1.10;;
36745;SDS011;22715;52.182;21.206;2022-09-17T08:33:15;1.35;;;1.10;;
36745;SDS011;22715;52.182;21.206;2022-09-17T08:35:42;1.98;;;1.65;;
36745;SDS011;22715;52.182;21.206;2022-09-17T08:38:07;4.22;;;1.77;;
36745;SDS011;22715;52.182;21.206;2022-09-17T08:40:34;2.45;;;1.35;;
36745;SDS011;22715;52.182;21.206;2022-09-17T08:43:02;2.47;;;1.40;;
36745;SDS011;22715;52.182;21.206;2022-09-17T08:45:30;9.15;;;3.42;;
36745;SDS011;22715;52.182;21.206;2022-09-17T08:48:00;3.00;;;2.17;;
36745;SDS011;22715;52.182;21.206;2022-09-17T08:50:28;1.92;;;1.10;;
36745;SDS011;22715;52.182;21.206;2022-09-17T08:55:41;0.68;;;0.68;;
36745;SDS011;22715;52.182;21.206;2022-09-17T09:05:49;1.90;;;1.52;;
36745;SDS011;22715;52.182;21.206;2022-09-17T09:10:52;5.45;;;2.92;;
36745;SDS011;22715;52.182;21.206;2022-09-17T09:13:20;1.50;;;1.40;;
36745;SDS011;22715;52.182;21.206;2022-09-17T09:15:47;1.95;;;1.48;;
36745;SDS011;22715;52.182;21.206;2022-09-17T09:18:35;1.42;;;1.27;;
36745;SDS011;22715;52.182;21.206;2022-09-17T09:23:32;3.03;;;1.20;;
36745;SDS011;22715;52.182;21.206;2022-09-17T09:26:51;0.77;;;0.75;;
36745;SDS011;22715;52.182;21.206;2022-09-17T09:31:24;1.73;;;1.20;;
36745;SDS011;22715;52.182;21.206;2022-09-17T09:33:54;3.58;;;1.73;;
36745;SDS011;22715;52.182;21.206;2022-09-17T09:36:20;5.18;;;1.50;;
36745;SDS011;22715;52.182;21.206;2022-09-17T09:38:53;3.05;;;2.35;;
36745;SDS011;22715;52.182;21.206;2022-09-17T09:43:55;3.22;;;1.50;;
36745;SDS011;22715;52.182;21.206;2022-09-17T09:46:31;4.20;;;1.20;;
36745;SDS011;22715;52.182;21.206;2022-09-17T09:51:39;3.90;;;1.88;;
36745;SDS011;22715;52.182;21.206;2022-09-17T09:54:22;4.22;;;1.38;;
36745;SDS011;22715;52.182;21.206;2022-09-17T09:59:15;2.97;;;2.28;;
36745;SDS011;22715;52.182;21.206;2022-09-17T10:01:42;2.33;;;2.13;;
36745;SDS011;22715;52.182;21.206;2022-09-17T10:04:16;1.80;;;1.23;;
36745;SDS011;22715;52.182;21.206;2022-09-17T10:06:51;5.03;;;1.17;;
36745;SDS011;22715;52.182;21.206;2022-09-17T10:09:17;2.05;;;1.83;;
36745;SDS011;22715;52.182;21.206;2022-09-17T10:12:02;2.88;;;2.05;;
36745;SDS011;22715;52.182;21.206;2022-09-17T10:14:41;1.80;;;1.08;;
36745;SDS011;22715;52.182;21.206;2022-09-17T10:17:19;1.73;;;1.33;;
36745;SDS011;22715;52.182;21.206;2022-09-17T10:20:07;1.58;;;1.42;;
36745;SDS011;22715;52.182;21.206;2022-09-17T10:22:35;2.22;;;1.30;;
36745;SDS011;22715;52.182;21.206;2022-09-17T10:25:24;2.55;;;1.52;;
36745;SDS011;22715;52.182;21.206;2022-09-17T10:27:50;1.25;;;1.10;;
36745;SDS011;22715;52.182;21.206;2022-09-17T10:30:17;3.97;;;1.10;;
36745;SDS011;22715;52.182;21.206;2022-09-17T10:32:42;1.20;;;1.10;;
36745;SDS011;22715;52.182;21.206;2022-09-17T10:37:43;1.05;;;0.98;;
36745;SDS011;22715;52.182;21.206;2022-09-17T10:40:30;1.65;;;1.40;;
36745;SDS011;22715;52.182;21.206;2022-09-17T10:45:54;6.32;;;3.78;;
36745;SDS011;22715;52.182;21.206;2022-09-17T10:48:20;15.32;;;10.38;;
36745;SDS011;22715;52.182;21.206;2022-09-17T10:50:51;2.45;;;1.95;;
36745;SDS011;22715;52.182;21.206;2022-09-17T10:53:17;2.15;;;1.10;;
36745;SDS011;22715;52.182;21.206;2022-09-17T10:55:54;2.08;;;0.85;;
36745;SDS011;22715;52.182;21.206;2022-09-17T11:08:49;1.20;;;1.05;;
36745;SDS011;22715;52.182;21.206;2022-09-17T11:16:42;1.48;;;1.38;;
36745;SDS011;22715;52.182;21.206;2022-09-17T11:21:39;1.13;;;0.90;;
36745;SDS011;22715;52.182;21.206;2022-09-17T11:24:16;1.65;;;1.00;;
36745;SDS011;22715;52.182;21.206;2022-09-17T11:27:06;2.90;;;1.30;;
36745;SDS011;22715;52.182;21.206;2022-09-17T11:34:41;2.35;;;1.98;;
36745;SDS011;22715;52.182;21.206;2022-09-17T11:37:21;3.53;;;1.70;;
36745;SDS011;22715;52.182;21.206;2022-09-17T11:39:48;1.77;;;1.17;;
36745;SDS011;22715;52.182;21.206;2022-09-17T11:45:03;2.65;;;1.77;;
36745;SDS011;22715;52.182;21.206;2022-09-17T11:47:34;2.22;;;1.50;;
36745;SDS011;22715;52.182;21.206;2022-09-17T11:50:01;1.58;;;1.20;;
36745;SDS011;22715;52.182;21.206;2022-09-17T11:52:31;4.53;;;1.67;;
36745;SDS011;22715;52.182;21.206;2022-09-17T11:55:15;2.13;;;1.83;;
36745;SDS011;22715;52.182;21.206;2022-09-17T11:57:42;2.88;;;1.65;;
36745;SDS011;22715;52.182;21.206;2022-09-17T12:05:02;3.25;;;2.20;;
36745;SDS011;22715;52.182;21.206;2022-09-17T12:08:07;3.15;;;2.20;;
36745;SDS011;22715;52.182;21.206;2022-09-17T12:12:55;1.63;;;1.40;;
36745;SDS011;22715;52.182;21.206;2022-09-17T12:15:25;4.43;;;2.78;;
36745;SDS011;22715;52.182;21.206;2022-09-17T12:20:22;3.10;;;1.75;;
36745;SDS011;22715;52.182;21.206;2022-09-17T12:22:54;2.42;;;1.63;;
36745;SDS011;22715;52.182;21.206;2022-09-17T12:25:38;2.25;;;1.52;;
36745;SDS011;22715;52.182;21.206;2022-09-17T12:28:11;1.70;;;1.60;;
36745;SDS011;22715;52.182;21.206;2022-09-17T12:30:39;1.70;;;1.60;;
36745;SDS011;22715;52.182;21.206;2022-09-17T12:33:15;1.73;;;1.42;;
36745;SDS011;22715;52.182;21.206;2022-09-17T12:40:58;1.33;;;1.15;;
36745;SDS011;22715;52.182;21.206;2022-09-17T12:51:18;1.42;;;0.82;;
36745;SDS011;22715;52.182;21.206;2022-09-17T12:59:05;1.35;;;0.85;;
36745;SDS011;22715;52.182;21.206;2022-09-17T13:01:47;0.95;;;0.88;;
36745;SDS011;22715;52.182;21.206;2022-09-17T13:07:13;1.95;;;1.70;;
36745;SDS011;22715;52.182;21.206;2022-09-17T13:19:49;2.70;;;1.10;;
36745;SDS011;22715;52.182;21.206;2022-09-17T13:22:26;10.80;;;1.73;;
36745;SDS011;22715;52.182;21.206;2022-09-17T13:25:27;0.70;;;0.55;;
36745;SDS011;22715;52.182;21.206;2022-09-17T13:27:46;1.13;;;1.02;;
36745;SDS011;22715;52.182;21.206;2022-09-17T13:30:12;1.02;;;0.70;;
36745;SDS011;22715;52.182;21.206;2022-09-17T13:37:30;2.08;;;1.30;;
36745;SDS011;22715;52.182;21.206;2022-09-17T13:39:56;3.47;;;2.15;;
36745;SDS011;22715;52.182;21.206;2022-09-17T13:42:30;3.30;;;1.90;;
36745;SDS011;22715;52.182;21.206;2022-09-17T13:49:59;0.98;;;0.82;;
36745;SDS011;22715;52.182;21.206;2022-09-17T13:52:32;1.27;;;1.15;;
36745;SDS011;22715;52.182;21.206;2022-09-17T13:54:58;1.38;;;1.00;;
36745;SDS011;22715;52.182;21.206;2022-09-17T13:57:42;1.70;;;1.05;;
36745;SDS011;22715;52.182;21.206;2022-09-17T14:00:48;2.78;;;0.95;;
36745;SDS011;22715;52.182;21.206;2022-09-17T14:03:58;1.80;;;1.25;;
36745;SDS011;22715;52.182;21.206;2022-09-17T14:08:29;3.30;;;1.38;;
36745;SDS011;22715;52.182;21.206;2022-09-17T14:10:57;2.13;;;1.38;;
36745;SDS011;22715;52.182;21.206;2022-09-17T14:13:27;1.60;;;1.33;;
36745;SDS011;22715;52.182;21.206;2022-09-17T14:16:47;1.50;;;1.40;;
36745;SDS011;22715;52.182;21.206;2022-09-17T14:19:12;5.10;;;1.83;;
36745;SDS011;22715;52.182;21.206;2022-09-17T14:21:43;2.10;;;1.02;;
36745;SDS011;22715;52.182;21.206;2022-09-17T14:24:20;2.60;;;1.38;;
36745;SDS011;22715;52.182;21.206;2022-09-17T14:32:18;4.03;;;1.33;;
36745;SDS011;22715;52.182;21.206;2022-09-17T14:34:46;5.20;;;1.80;;
36745;SDS011;22715;52.182;21.206;2022-09-17T14:37:15;2.97;;;1.52;;
36745;SDS011;22715;52.182;21.206;2022-09-17T14:39:41;2.53;;;1.55;;
36745;SDS011;22715;52.182;21.206;2022-09-17T14:42:12;5.20;;;1.73;;
36745;SDS011;22715;52.182;21.206;2022-09-17T14:44:45;2.08;;;1.33;;
36745;SDS011;22715;52.182;21.206;2022-09-17T14:47:32;2.45;;;1.30;;
36745;SDS011;22715;52.182;21.206;2022-09-17T14:50:17;2.00;;;1.58;;
36745;SDS011;22715;52.182;21.206;2022-09-17T14:52:47;2.67;;;1.60;;
36745;SDS011;22715;52.182;21.206;2022-09-17T14:57:42;4.18;;;2.42;;
36745;SDS011;22715;52.182;21.206;2022-09-17T15:00:14;2.78;;;2.08;;
36745;SDS011;22715;52.182;21.206;2022-09-17T15:02:40;4.45;;;3.53;;
36745;SDS011;22715;52.182;21.206;2022-09-17T15:05:21;5.25;;;3.70;;
36745;SDS011;22715;52.182;21.206;2022-09-17T15:07:47;4.00;;;2.55;;
36745;SDS011;22715;52.182;21.206;2022-09-17T15:10:14;2.53;;;1.63;;
36745;SDS011;22715;52.182;21.206;2022-09-17T15:12:40;4.15;;;2.85;;
36745;SDS011;22715;52.182;21.206;2022-09-17T15:15:09;3.28;;;2.08;;
36745;SDS011;22715;52.182;21.206;2022-09-17T15:17:35;3.25;;;2.35;;
36745;SDS011;22715;52.182;21.206;2022-09-17T15:20:02;4.05;;;2.53;;
36745;SDS011;22715;52.182;21.206;2022-09-17T15:22:31;3.13;;;2.72;;
36745;SDS011;22715;52.182;21.206;2022-09-17T15:25:03;3.53;;;2.78;;
36745;SDS011;22715;52.182;21.206;2022-09-17T15:27:36;3.45;;;2.15;;
36745;SDS011;22715;52.182;21.206;2022-09-17T15:30:04;2.75;;;1.75;;
36745;SDS011;22715;52.182;21.206;2022-09-17T15:32:31;2.58;;;1.98;;
36745;SDS011;22715;52.182;21.206;2022-09-17T15:35:39;4.55;;;2.80;;
36745;SDS011;22715;52.182;21.206;2022-09-17T15:40:11;5.18;;;2.70;;
36745;SDS011;22715;52.182;21.206;2022-09-17T15:42:37;6.53;;;3.00;;
36745;SDS011;22715;52.182;21.206;2022-09-17T15:45:47;2.53;;;2.05;;
36745;SDS011;22715;52.182;21.206;2022-09-17T15:47:59;5.20;;;2.63;;
36745;SDS011;22715;52.182;21.206;2022-09-17T15:50:25;6.60;;;3.13;;
36745;SDS011;22715;52.182;21.206;2022-09-17T15:55:36;4.97;;;2.88;;
36745;SDS011;22715;52.182;21.206;2022-09-17T15:58:18;5.30;;;3.70;;
36745;SDS011;22715;52.182;21.206;2022-09-17T16:00:44;4.07;;;3.40;;
36745;SDS011;22715;52.182;21.206;2022-09-17T16:03:37;6.20;;;3.80;;
36745;SDS011;22715;52.182;21.206;2022-09-17T16:06:02;5.00;;;2.30;;
36745;SDS011;22715;52.182;21.206;2022-09-17T16:08:32;4.38;;;2.88;;
36745;SDS011;22715;52.182;21.206;2022-09-17T16:10:57;4.15;;;2.92;;
36745;SDS011;22715;52.182;21.206;2022-09-17T16:13:23;7.28;;;3.42;;
36745;SDS011;22715;52.182;21.206;2022-09-17T16:15:48;4.10;;;3.55;;
36745;SDS011;22715;52.182;21.206;2022-09-17T16:18:13;7.32;;;3.72;;
36745;SDS011;22715;52.182;21.206;2022-09-17T16:20:39;5.35;;;4.05;;
36745;SDS011;22715;52.182;21.206;2022-09-17T16:23:04;7.82;;;3.80;;
36745;SDS011;22715;52.182;21.206;2022-09-17T16:25:29;9.02;;;4.30;;
36745;SDS011;22715;52.182;21.206;2022-09-17T16:27:56;6.78;;;3.10;;
36745;SDS011;22715;52.182;21.206;2022-09-17T16:30:22;7.30;;;3.70;;
36745;SDS011;22715;52.182;21.206;2022-09-17T16:32:48;6.15;;;3.58;;
36745;SDS011;22715;52.182;21.206;2022-09-17T16:35:16;7.03;;;4.03;;
36745;SDS011;22715;52.182;21.206;2022-09-17T16:37:41;7.80;;;4.65;;
36745;SDS011;22715;52.182;21.206;2022-09-17T16:40:10;9.23;;;3.47;;
36745;SDS011;22715;52.182;21.206;2022-09-17T16:42:36;8.00;;;5.10;;
36745;SDS011;22715;52.182;21.206;2022-09-17T16:45:01;8.20;;;4.50;;
36745;SDS011;22715;52.182;21.206;2022-09-17T16:47:28;7.38;;;4.28;;
36745;SDS011;22715;52.182;21.206;2022-09-17T16:49:55;11.00;;;4.95;;
36745;SDS011;22715;52.182;21.206;2022-09-17T16:52:20;5.80;;;4.32;;
36745;SDS011;22715;52.182;21.206;2022-09-17T16:54:46;4.50;;;3.47;;
36745;SDS011;22715;52.182;21.206;2022-09-17T16:57:11;5.97;;;4.57;;
36745;SDS011;22715;52.182;21.206;2022-09-17T16:59:36;24.73;;;7.32;;
36745;SDS011;22715;52.182;21.206;2022-09-17T17:02:01;14.52;;;7.53;;
36745;SDS011;22715;52.182;21.206;2022-09-17T17:04:27;9.07;;;5.65;;
36745;SDS011;22715;52.182;21.206;2022-09-17T17:06:52;8.48;;;6.60;;
36745;SDS011;22715;52.182;21.206;2022-09-17T17:09:18;7.78;;;6.40;;
36745;SDS011;22715;52.182;21.206;2022-09-17T17:11:43;8.25;;;7.13;;
36745;SDS011;22715;52.182;21.206;2022-09-17T17:14:08;7.88;;;6.75;;
36745;SDS011;22715;52.182;21.206;2022-09-17T17:16:34;6.15;;;5.43;;
36745;SDS011;22715;52.182;21.206;2022-09-17T17:18:59;8.88;;;7.15;;
36745;SDS011;22715;52.182;21.206;2022-09-17T17:21:24;11.60;;;8.75;;
36745;SDS011;22715;52.182;21.206;2022-09-17T17:23:50;13.50;;;8.48;;
36745;SDS011;22715;52.182;21.206;2022-09-17T17:26:16;10.52;;;7.15;;
36745;SDS011;22715;52.182;21.206;2022-09-17T17:28:41;10.38;;;7.63;;
36745;SDS011;22715;52.182;21.206;2022-09-17T17:31:09;10.90;;;6.85;;
36745;SDS011;22715;52.182;21.206;2022-09-17T17:33:35;8.95;;;5.72;;